Un nouveau de l outaouais

Vous venez de vous inscrire sur Pilotes Québec? Venez nous en dire un peu sur vous, votre formation, votre expérience, ce qui vous passionne de l'aviation! On a hâte de vous lire!

Un nouveau de l outaouais

Messagepar Cyclone » Dim 16 Sep, 2018 06:50

Comme le titre le dit un p tit nouveau. J ai passer mon fly test la semaine passer avec succes. Que de stress. Honnetement epreuve tres stressante et je ne sais pas pourqu oi. On a juste a refaire ce qu on fait avec notre instructeur et ne pas penser au test. ca irais beaucoup mieux.

Dimanche le 16 je decolle avec ma blonde a Gatineau direction 3 rivieres. Mon premier passager a vie. Bien hate de voir si je suis un bon commandant de bord qui prend soins de ses passagers
Cyclone
Membre timide
Membre timide
 
Messages: 6
Inscription: Dim 16 Sep, 2018 06:30
Possédez-vous une licence de pilote?: Oui
Marque de l'avion: Supercyclone
Modèle de l'avion: Copie d un 185
Identification de l'avion:

Re: Un nouveau de l outaouais

Messagepar chico5817 » Dim 16 Sep, 2018 07:52

bon vol vers CYRQ cyclone



METAR/TAF
TROIS-RIVIERES/QC (voir Cam météo)
METAR CYRQ 161100Z AUTO 01008KT 9SM OVC047 19/16 A3020 RMK SLP229 DENSITY ALT 300FT=
METAR CYRQ 161000Z AUTO 36007KT 9SM SCT047 19/16 A3018 RMK SLP222 DENSITY ALT 300FT=
METAR CYRQ 160900Z AUTO 01007KT 9SM BKN100 19/16 A3017 RMK SLP217 DENSITY ALT 400FT=
TAF CYRQ 160738Z 1608/1620 01007KT P6SM FEW100 SCT300
FM161200 36008KT P6SM SCT015 BKN050 TEMPO 1612/1616 BKN015 OVC050
FM161600 05006KT P6SM BKN030
RMK FCST BASED ON AUTO OBS. NXT FCST BY 161400Z=

Pierre C.
Avatar de l’utilisateur
chico5817
Participant accro
Participant accro
 
Messages: 1636
Inscription: Ven 09 Oct, 2009 09:45
Localisation: Beloeil
Possédez-vous une licence de pilote?: Oui
Marque de l'avion:
Modèle de l'avion:
Identification de l'avion:

Re: Un nouveau de l outaouais

Messagepar Birdman » Lun 17 Sep, 2018 09:47

Bienvenue sur le site Cyclone.

Birdman
Avatar de l’utilisateur
Birdman
Vrai participant
Vrai participant
 
Messages: 1211
Inscription: Mer 27 Juin, 2007 11:13
Localisation: Châteauguay
Possédez-vous une licence de pilote?: Oui
Marque de l'avion: Cessna
Modèle de l'avion: 172N
Identification de l'avion: C-GSXN


Retourner vers Présentation des nouveaux

Qui est en ligne

Utilisateurs parcourant ce forum: Aucun utilisateur enregistré et 2 invités